Time;durP1;ratioP1;P1;durP2;ratioP2;P2;SDS_P1;SDS_P2;PMS_P1;PMS_P2;Temp;Humidity;BMP_temperature;BMP_pressure;BME280_temperature;BME280_humidity;BME280_pressure;Samples;Min_cycle;Max_cycle;Signal;HPM_P1;HPM_P2
2022/06/29 00:00:37;;;;;;;2.50;2.30;;;20.70;68.80;;;;;;4841712;29;20470;-75
2022/06/29 00:03:04;;;;;;;3.47;2.77;;;20.60;68.30;;;;;;4842025;29;21007;-75
2022/06/29 00:05:32;;;;;;;3.70;2.47;;;20.50;68.20;;;;;;4841955;29;20462;-76
2022/06/29 00:07:59;;;;;;;3.53;2.47;;;20.50;68.20;;;;;;4841873;29;20466;-76
2022/06/29 00:10:26;;;;;;;2.40;2.20;;;20.50;69.60;;;;;;4844060;29;20459;-75
2022/06/29 00:12:53;;;;;;;3.03;2.37;;;20.50;69.50;;;;;;4844021;29;20598;-75
2022/06/29 00:15:21;;;;;;;2.70;2.50;;;20.60;68.80;;;;;;4844519;29;20878;-75
2022/06/29 00:17:48;;;;;;;2.30;2.20;;;20.60;68.30;;;;;;4844213;29;20941;-75
2022/06/29 00:20:16;;;;;;;3.20;2.80;;;20.60;68.30;;;;;;4843831;29;20936;-76
2022/06/29 00:22:45;;;;;;;3.03;2.57;;;20.50;68.60;;;;;;4843572;29;21046;-75
2022/06/29 00:25:13;;;;;;;6.83;2.67;;;20.60;68.30;;;;;;4843511;29;20458;-75
2022/06/29 00:27:41;;;;;;;2.73;2.53;;;20.50;68.30;;;;;;4841599;29;20463;-75
2022/06/29 00:30:09;;;;;;;3.23;2.70;;;20.50;68.20;;;;;;4841337;29;20446;-75
2022/06/29 00:32:36;;;;;;;3.10;2.50;;;20.40;68.20;;;;;;4841100;29;20510;-75
2022/06/29 00:35:03;;;;;;;3.17;2.70;;;20.40;68.70;;;;;;4841736;29;20463;-76
2022/06/29 00:37:30;;;;;;;3.20;3.00;;;20.40;68.70;;;;;;4841979;29;20444;-75
2022/06/29 00:39:58;;;;;;;2.87;2.37;;;20.40;68.90;;;;;;4843096;29;20441;-76
2022/06/29 00:42:25;;;;;;;3.33;3.03;;;20.50;68.80;;;;;;4845445;29;20480;-76
2022/06/29 00:44:52;;;;;;;2.87;2.67;;;20.50;68.20;;;;;;4847080;29;20470;-74
2022/06/29 00:47:19;;;;;;;2.80;2.60;;;20.50;68.20;;;;;;4845255;29;20466;-75
2022/06/29 00:49:45;;;;;;;3.10;2.90;;;20.60;68.30;;;;;;4843671;29;20445;-76
2022/06/29 00:52:13;;;;;;;4.40;2.60;;;20.60;69.10;;;;;;4842830;29;20481;-75
2022/06/29 00:54:43;;;;;;;3.93;2.53;;;20.50;68.50;;;;;;4843555;29;20474;-76
2022/06/29 00:57:15;;;;;;;4.43;2.70;;;20.40;70.20;;;;;;4843409;29;20463;-76
2022/06/29 00:59:44;;;;;;;4.00;2.40;;;20.30;70.90;;;;;;4844504;29;20437;-76
2022/06/29 01:02:13;;;;;;;3.00;2.80;;;20.30;71.60;;;;;;4847535;29;20521;-75
2022/06/29 01:04:40;;;;;;;2.70;2.50;;;20.30;71.20;;;;;;4854505;29;20441;-75
2022/06/29 01:07:08;;;;;;;2.87;2.20;;;20.30;70.80;;;;;;4851420;29;20437;-76
2022/06/29 01:09:35;;;;;;;3.70;2.50;;;20.30;71.50;;;;;;4853837;29;20486;-75
2022/06/29 01:12:02;;;;;;;3.23;2.70;;;20.30;72.10;;;;;;4847093;29;20510;-75
2022/06/29 01:14:30;;;;;;;2.73;2.50;;;20.40;71.50;;;;;;4857471;29;20466;-75
2022/06/29 01:16:57;;;;;;;2.63;2.40;;;20.50;71.10;;;;;;4857244;29;20494;-76
2022/06/29 01:19:24;;;;;;;2.40;2.23;;;20.50;71.50;;;;;;4856252;29;20556;-76
2022/06/29 01:21:54;;;;;;;3.00;2.77;;;20.50;71.30;;;;;;4848646;29;20457;-76
2022/06/29 01:24:23;;;;;;;2.77;2.57;;;20.50;70.80;;;;;;4848344;29;20441;-75
2022/06/29 01:26:50;;;;;;;3.27;2.93;;;20.50;70.80;;;;;;4845411;29;20470;-75
2022/06/29 01:29:17;;;;;;;2.90;2.70;;;20.60;70.30;;;;;;4845327;29;20455;-76
2022/06/29 01:31:45;;;;;;;2.53;2.33;;;20.60;70.60;;;;;;4844591;29;20972;-75
2022/06/29 01:34:11;;;;;;;3.90;2.70;;;20.50;71.40;;;;;;4849363;29;20447;-76
2022/06/29 01:36:38;;;;;;;5.50;2.87;;;20.60;71.20;;;;;;4856252;29;20568;-75
2022/06/29 01:39:05;;;;;;;2.37;2.27;;;20.40;71.30;;;;;;4858667;29;20448;-75
2022/06/29 01:41:33;;;;;;;3.47;3.10;;;20.40;72.10;;;;;;4861502;29;20438;-75
2022/06/29 01:44:00;;;;;;;3.60;3.00;;;20.50;72.70;;;;;;4853245;29;20445;-75
2022/06/29 01:46:27;;;;;;;2.80;2.37;;;20.40;72.70;;;;;;4854120;29;20437;-75
2022/06/29 01:48:54;;;;;;;5.43;3.07;;;20.40;73.70;;;;;;4852741;29;20590;-76
2022/06/29 01:51:21;;;;;;;3.37;2.80;;;20.40;73.60;;;;;;4845622;29;20485;-75
2022/06/29 01:53:48;;;;;;;4.57;3.47;;;20.30;75.10;;;;;;4845822;29;20509;-75
2022/06/29 01:56:15;;;;;;;2.77;2.53;;;20.20;76.00;;;;;;4844004;29;20470;-75
2022/06/29 01:58:43;;;;;;;3.13;2.73;;;20.30;75.80;;;;;;4843563;29;20462;-76
2022/06/29 02:01:10;;;;;;;3.27;2.73;;;20.30;74.90;;;;;;4843957;29;20469;-76
2022/06/29 02:03:37;;;;;;;6.40;2.83;;;20.30;75.10;;;;;;4844903;29;20476;-76
2022/06/29 02:06:04;;;;;;;5.10;2.90;;;20.30;75.00;;;;;;4844866;29;20442;-75
2022/06/29 02:08:31;;;;;;;3.10;2.80;;;20.40;75.00;;;;;;4849336;29;20463;-75
2022/06/29 02:10:59;;;;;;;2.90;2.70;;;20.40;74.60;;;;;;4846797;29;20463;-76
2022/06/29 02:13:26;;;;;;;2.67;2.47;;;20.40;74.60;;;;;;4846469;29;20499;-76
2022/06/29 02:15:54;;;;;;;3.90;2.73;;;20.50;74.50;;;;;;4847837;29;20550;-75
2022/06/29 02:18:21;;;;;;;7.30;3.40;;;20.40;74.20;;;;;;4850137;29;20844;-76
2022/06/29 02:20:48;;;;;;;3.57;2.67;;;20.40;75.00;;;;;;4855134;29;20467;-75
2022/06/29 02:23:15;;;;;;;6.10;2.53;;;20.30;75.50;;;;;;4858499;29;20481;-75
2022/06/29 02:25:42;;;;;;;3.13;2.83;;;20.20;76.90;;;;;;4864325;29;20511;-76
2022/06/29 02:28:09;;;;;;;3.13;2.83;;;20.20;76.90;;;;;;4865968;29;20493;-75
2022/06/29 02:36:06;;;;;;;2.80;2.50;;;20.20;77.40;;;;;;4864372;29;20442;-75
2022/06/29 02:38:33;;;;;;;6.40;2.57;;;20.30;77.00;;;;;;4863511;29;20534;-75
2022/06/29 02:41:00;;;;;;;3.33;3.07;;;20.30;77.00;;;;;;4861891;29;20515;-76
2022/06/29 02:43:27;;;;;;;4.30;2.90;;;20.30;77.00;;;;;;4860905;29;20598;-75
2022/06/29 02:45:54;;;;;;;3.10;2.70;;;20.30;76.90;;;;;;4846307;29;20433;-75
2022/06/29 02:48:22;;;;;;;3.37;3.07;;;20.30;76.30;;;;;;4853424;29;20473;-75
2022/06/29 02:50:49;;;;;;;3.07;2.87;;;20.20;76.90;;;;;;4854779;29;20426;-75
2022/06/29 02:53:15;;;;;;;3.80;2.70;;;20.10;78.00;;;;;;4844553;29;20524;-75
2022/06/29 02:55:42;;;;;;;3.53;2.97;;;20.10;78.20;;;;;;4852641;29;20466;-75
2022/06/29 02:58:09;;;;;;;4.17;2.80;;;20.10;78.00;;;;;;4853465;29;20528;-75
2022/06/29 03:00:36;;;;;;;3.60;3.30;;;20.00;78.10;;;;;;4848676;29;20462;-75
2022/06/29 03:03:03;;;;;;;3.63;2.60;;;20.10;78.60;;;;;;4844525;29;20475;-75
2022/06/29 03:05:31;;;;;;;5.47;3.53;;;20.20;77.80;;;;;;4843594;29;20466;-76
2022/06/29 03:07:58;;;;;;;4.50;3.60;;;20.20;77.20;;;;;;4843335;29;20463;-75
2022/06/29 03:10:25;;;;;;;3.63;3.33;;;20.10;78.30;;;;;;4843316;29;20545;-75
2022/06/29 03:12:51;;;;;;;3.87;2.90;;;20.10;78.20;;;;;;4842615;29;20503;-75
2022/06/29 03:15:19;;;;;;;3.53;3.23;;;20.00;77.80;;;;;;4842695;29;20974;-75
2022/06/29 03:17:45;;;;;;;5.47;3.17;;;20.00;79.10;;;;;;4842578;29;20469;-75
2022/06/29 03:20:13;;;;;;;5.27;3.17;;;20.00;78.90;;;;;;4843142;29;20467;-76
2022/06/29 03:22:43;;;;;;;3.97;2.70;;;20.00;78.40;;;;;;4842527;29;20547;-76
2022/06/29 03:25:11;;;;;;;3.70;3.20;;;20.10;78.20;;;;;;4845260;29;20473;-74
2022/06/29 03:27:37;;;;;;;4.33;3.33;;;20.00;77.40;;;;;;4847435;29;20438;-76
2022/06/29 03:30:05;;;;;;;5.63;3.63;;;19.90;77.70;;;;;;4843460;29;20441;-75
2022/06/29 03:32:32;;;;;;;6.20;3.70;;;19.90;79.30;;;;;;4842124;29;20475;-75
2022/06/29 03:34:59;;;;;;;7.00;3.73;;;19.90;79.80;;;;;;4842582;29;20564;-76
2022/06/29 03:37:26;;;;;;;3.33;3.13;;;19.80;80.00;;;;;;4842935;29;20444;-76
2022/06/29 03:39:54;;;;;;;3.97;2.90;;;19.80;80.90;;;;;;4842378;29;20466;-76
2022/06/29 03:42:21;;;;;;;3.73;2.90;;;19.80;80.90;;;;;;4842602;29;20469;-76
2022/06/29 03:44:48;;;;;;;4.57;3.40;;;19.90;81.00;;;;;;4842435;29;20550;-75
2022/06/29 03:47:15;;;;;;;3.77;3.50;;;19.90;81.00;;;;;;4841405;29;21294;-76
2022/06/29 03:49:42;;;;;;;3.23;2.93;;;19.90;81.00;;;;;;4849692;29;20927;-76
2022/06/29 03:52:09;;;;;;;3.37;3.07;;;20.00;81.10;;;;;;4849151;29;20543;-77
2022/06/29 03:54:36;;;;;;;3.73;3.43;;;20.00;81.10;;;;;;4841943;29;20473;-75
2022/06/29 03:57:05;;;;;;;3.83;3.33;;;20.10;80.80;;;;;;4842088;29;20478;-76
2022/06/29 03:59:32;;;;;;;3.67;3.47;;;20.20;79.90;;;;;;4842679;29;20524;-76
2022/06/29 04:01:58;;;;;;;3.23;2.83;;;20.20;78.60;;;;;;4841179;29;21048;-75
2022/06/29 04:04:25;;;;;;;3.83;3.40;;;20.30;78.30;;;;;;4841912;29;20930;-75
2022/06/29 04:06:52;;;;;;;4.53;3.43;;;20.20;77.70;;;;;;4841872;29;20966;-76
2022/06/29 04:09:19;;;;;;;3.37;3.07;;;20.40;77.10;;;;;;4842028;29;20473;-76
2022/06/29 04:11:53;;;;;;;5.07;3.70;;;20.40;76.50;;;;;;4841791;29;20473;-75
2022/06/29 04:14:23;;;;;;;3.57;3.03;;;20.30;77.00;;;;;;4842306;29;20502;-75
2022/06/29 04:16:51;;;;;;;6.10;3.70;;;20.30;77.10;;;;;;4842385;29;20501;-75
2022/06/29 04:19:17;;;;;;;4.50;3.90;;;20.10;78.10;;;;;;4842251;29;20806;-75
2022/06/29 04:21:45;;;;;;;4.03;3.07;;;20.10;78.60;;;;;;4841153;29;20498;-76
2022/06/29 04:24:11;;;;;;;4.87;3.07;;;20.20;78.90;;;;;;4842009;29;20463;-77
2022/06/29 04:26:38;;;;;;;3.20;3.00;;;20.30;78.40;;;;;;4841784;29;20459;-75
2022/06/29 04:29:06;;;;;;;3.93;3.53;;;20.40;77.10;;;;;;4841913;29;20812;-75
2022/06/29 04:31:34;;;;;;;4.00;3.07;;;20.50;74.60;;;;;;4841609;29;20466;-75
2022/06/29 04:34:01;;;;;;;3.80;3.50;;;20.50;73.70;;;;;;4842066;29;20573;-75
2022/06/29 04:36:28;;;;;;;8.83;3.47;;;20.50;73.00;;;;;;4845079;29;20545;-75
2022/06/29 04:38:55;;;;;;;3.30;3.00;;;20.50;71.40;;;;;;4852815;29;20963;-74
2022/06/29 04:41:22;;;;;;;3.40;3.20;;;20.50;68.20;;;;;;4839412;29;20575;-75
2022/06/29 04:43:50;;;;;;;3.77;3.47;;;20.50;67.20;;;;;;4845140;29;20471;-75
2022/06/29 04:46:21;;;;;;;11.03;3.50;;;20.40;65.90;;;;;;4846740;29;20457;-74
2022/06/29 04:48:50;;;;;;;5.90;2.27;;;20.40;64.00;;;;;;4848827;29;20459;-74
2022/06/29 04:51:17;;;;;;;3.60;2.50;;;20.40;59.30;;;;;;4849612;29;20462;-75
2022/06/29 04:53:44;;;;;;;3.90;2.67;;;20.30;58.90;;;;;;4845063;29;20498;-75
2022/06/29 04:56:11;;;;;;;4.23;2.90;;;20.30;58.90;;;;;;4845213;29;20433;-76
2022/06/29 04:58:38;;;;;;;2.80;2.60;;;20.30;58.90;;;;;;4844542;29;20481;-75
2022/06/29 05:01:06;;;;;;;3.47;2.60;;;20.40;59.00;;;;;;4845298;29;20506;-76
2022/06/29 05:03:33;;;;;;;3.63;3.07;;;20.50;59.10;;;;;;4848162;29;21022;-76
2022/06/29 05:06:01;;;;;;;3.23;2.67;;;20.70;58.80;;;;;;4846879;29;20466;-76
2022/06/29 05:08:28;;;;;;;7.37;2.60;;;20.80;57.50;;;;;;4847343;29;20826;-75
2022/06/29 05:10:55;;;;;;;4.13;2.70;;;20.90;57.30;;;;;;4843242;29;20469;-77
2022/06/29 05:13:22;;;;;;;2.80;2.60;;;20.90;57.90;;;;;;4848077;29;20501;-76
2022/06/29 05:15:49;;;;;;;2.80;2.60;;;21.10;57.20;;;;;;4847600;29;20441;-76
2022/06/29 05:18:16;;;;;;;7.63;3.10;;;21.30;57.20;;;;;;4845696;29;20461;-75
2022/06/29 05:20:43;;;;;;;3.50;3.20;;;21.40;56.60;;;;;;4844129;29;20506;-76
2022/06/29 05:23:11;;;;;;;3.83;2.70;;;21.50;55.80;;;;;;4856600;29;20905;-75
2022/06/29 05:25:39;;;;;;;3.20;2.90;;;21.70;55.70;;;;;;4845712;29;20469;-75
2022/06/29 05:28:06;;;;;;;4.00;2.73;;;21.90;55.00;;;;;;4845507;29;20442;-76
2022/06/29 05:30:33;;;;;;;4.87;3.40;;;22.10;55.70;;;;;;4844708;29;20495;-76
2022/06/29 05:33:00;;;;;;;4.57;3.57;;;22.40;59.30;;;;;;4846649;29;20455;-75
2022/06/29 05:35:29;;;;;;;4.53;3.50;;;22.50;60.20;;;;;;4856141;29;20443;-74
2022/06/29 05:37:56;;;;;;;7.03;3.33;;;22.70;59.10;;;;;;4861923;29;20440;-75
2022/06/29 05:40:24;;;;;;;3.20;2.90;;;22.70;59.00;;;;;;4847632;29;20447;-75
2022/06/29 05:42:51;;;;;;;3.63;2.80;;;22.80;58.70;;;;;;4858520;29;20429;-75
2022/06/29 05:45:18;;;;;;;3.93;3.40;;;23.00;58.00;;;;;;4863331;29;20493;-75
2022/06/29 05:47:45;;;;;;;4.53;3.03;;;23.80;54.80;;;;;;4848609;29;20519;-76
2022/06/29 05:50:13;;;;;;;4.23;2.63;;;24.80;51.20;;;;;;4845029;29;20434;-75
2022/06/29 05:52:40;;;;;;;5.33;2.80;;;25.80;47.10;;;;;;4844259;29;20475;-75
2022/06/29 05:55:07;;;;;;;2.70;2.50;;;26.50;44.30;;;;;;4858297;29;20492;-75
2022/06/29 05:57:36;;;;;;;2.90;2.30;;;27.00;40.60;;;;;;4865489;29;20500;-75
2022/06/29 06:00:05;;;;;;;5.87;2.50;;;27.50;37.10;;;;;;4865563;29;20450;-74
2022/06/29 06:02:31;;;;;;;6.73;2.50;;;27.90;35.90;;;;;;4863085;29;20499;-74
2022/06/29 06:04:58;;;;;;;3.80;2.97;;;28.20;35.40;;;;;;4867645;29;20783;-74
2022/06/29 06:07:25;;;;;;;5.40;3.50;;;28.10;35.30;;;;;;4849656;29;20466;-73
2022/06/29 06:09:52;;;;;;;6.27;3.53;;;27.90;35.80;;;;;;4844754;29;20444;-74
2022/06/29 06:12:19;;;;;;;4.90;2.70;;;27.50;37.20;;;;;;4843484;29;20463;-73
2022/06/29 06:14:47;;;;;;;4.27;3.70;;;27.70;37.50;;;;;;4845244;29;20822;-73
2022/06/29 06:17:14;;;;;;;3.37;3.10;;;27.90;37.30;;;;;;4844046;29;20544;-73
2022/06/29 06:19:40;;;;;;;4.10;3.70;;;27.90;37.40;;;;;;4844203;29;20799;-73
2022/06/29 06:22:07;;;;;;;9.97;3.63;;;28.00;36.50;;;;;;4843442;29;20574;-74
2022/06/29 06:24:34;;;;;;;3.40;3.20;;;27.90;37.00;;;;;;4845847;29;20558;-73
2022/06/29 06:27:01;;;;;;;5.03;3.70;;;27.90;37.60;;;;;;4856840;29;20509;-73
2022/06/29 06:29:28;;;;;;;3.90;3.60;;;28.00;37.20;;;;;;4838318;29;20535;-73
2022/06/29 06:31:56;;;;;;;7.17;3.97;;;28.10;37.30;;;;;;4843922;29;20466;-73
2022/06/29 06:34:23;;;;;;;3.70;3.40;;;28.30;36.70;;;;;;4843859;29;20483;-73
2022/06/29 06:36:50;;;;;;;4.07;3.73;;;28.30;36.20;;;;;;4843619;29;20470;-74
2022/06/29 06:39:17;;;;;;;3.60;3.30;;;28.50;35.60;;;;;;4842524;29;20572;-73
2022/06/29 06:41:43;;;;;;;8.83;4.07;;;28.40;36.00;;;;;;4842960;29;20805;-75
2022/06/29 06:44:09;;;;;;;4.40;3.57;;;28.20;36.60;;;;;;4843026;29;20464;-75
2022/06/29 06:46:36;;;;;;;4.50;4.20;;;28.00;37.30;;;;;;4843943;29;20250;-75
2022/06/29 06:49:04;;;;;;;4.13;3.73;;;28.00;36.90;;;;;;4843433;29;20561;-75
2022/06/29 06:51:31;;;;;;;4.10;3.70;;;27.90;37.60;;;;;;4843256;29;20819;-76
2022/06/29 06:53:58;;;;;;;5.53;4.30;;;27.90;38.20;;;;;;4843700;29;20510;-75
2022/06/29 06:56:25;;;;;;;4.30;3.90;;;28.20;37.30;;;;;;4843802;29;20479;-74
2022/06/29 06:58:52;;;;;;;9.63;4.63;;;27.80;38.20;;;;;;4843000;29;20579;-74
2022/06/29 07:01:19;;;;;;;4.80;4.40;;;27.20;39.90;;;;;;4842931;29;20931;-75
2022/06/29 07:03:45;;;;;;;4.50;4.10;;;26.90;40.70;;;;;;4844129;29;20459;-75
2022/06/29 07:06:14;;;;;;;5.23;4.30;;;26.60;41.80;;;;;;4847555;29;20811;-75
2022/06/29 07:08:40;;;;;;;4.87;4.40;;;26.20;43.20;;;;;;4846799;29;20487;-74
2022/06/29 07:11:08;;;;;;;5.30;4.80;;;25.70;44.00;;;;;;4844611;29;20437;-75
2022/06/29 07:13:36;;;;;;;4.80;4.30;;;25.20;46.50;;;;;;4844351;29;20486;-75
2022/06/29 07:16:05;;;;;;;4.83;4.40;;;25.10;47.30;;;;;;4844167;29;20809;-75
2022/06/29 07:18:32;;;;;;;4.60;4.30;;;25.00;48.00;;;;;;4843387;29;20491;-75
2022/06/29 07:20:59;;;;;;;4.83;4.50;;;25.20;48.10;;;;;;4843359;29;20858;-74
2022/06/29 07:23:28;;;;;;;5.50;4.23;;;25.30;48.00;;;;;;4843408;29;20920;-74
2022/06/29 07:25:55;;;;;;;4.60;4.03;;;25.30;47.90;;;;;;4843313;29;20474;-75
2022/06/29 07:28:22;;;;;;;7.30;4.10;;;25.50;47.50;;;;;;4843176;29;21028;-75
2022/06/29 07:30:48;;;;;;;4.40;4.00;;;25.60;47.30;;;;;;4845019;29;20530;-74
2022/06/29 07:33:15;;;;;;;4.77;4.40;;;25.60;47.50;;;;;;4848931;29;20465;-74
2022/06/29 07:35:42;;;;;;;3.97;3.73;;;25.90;45.80;;;;;;4846738;29;20475;-73
2022/06/29 07:38:10;;;;;;;4.50;4.10;;;26.30;44.80;;;;;;4847156;29;20462;-75
2022/06/29 07:40:38;;;;;;;5.30;3.77;;;26.60;44.60;;;;;;4853193;29;20509;-74
2022/06/29 07:43:05;;;;;;;4.60;4.20;;;26.80;44.40;;;;;;4860951;29;20542;-74
2022/06/29 07:45:32;;;;;;;4.70;4.17;;;26.80;43.10;;;;;;4844757;29;20468;-74
2022/06/29 07:47:59;;;;;;;7.67;3.73;;;26.80;42.80;;;;;;4842731;29;20435;-75
2022/06/29 07:50:25;;;;;;;4.10;3.80;;;26.60;42.70;;;;;;4842727;29;20439;-74
2022/06/29 07:52:52;;;;;;;4.90;4.50;;;26.80;42.70;;;;;;4870265;23;20478;-77
2022/06/29 07:55:19;;;;;;;4.27;3.97;;;27.10;41.50;;;;;;4861136;29;20848;-77
2022/06/29 07:57:50;;;;;;;3.80;3.50;;;27.10;41.40;;;;;;4865981;29;20438;-78
2022/06/29 08:00:17;;;;;;;4.00;3.60;;;27.30;41.50;;;;;;4861731;29;20799;-77
2022/06/29 08:02:44;;;;;;;4.63;4.20;;;27.50;41.10;;;;;;4850020;29;20572;-77
2022/06/29 08:05:11;;;;;;;5.00;4.50;;;27.50;40.20;;;;;;4842856;29;20439;-77
2022/06/29 08:07:38;;;;;;;4.90;4.17;;;27.30;40.50;;;;;;4850910;29;20495;-77
2022/06/29 08:10:07;;;;;;;6.93;4.27;;;27.20;40.40;;;;;;4860827;29;20474;-77
2022/06/29 08:12:35;;;;;;;4.57;3.90;;;26.90;42.00;;;;;;4859936;29;20462;-77
2022/06/29 08:15:04;;;;;;;4.47;4.00;;;27.00;41.60;;;;;;4861249;29;20546;-78
2022/06/29 08:17:31;;;;;;;4.53;4.10;;;26.80;42.40;;;;;;4861300;29;20579;-78
2022/06/29 08:19:57;;;;;;;4.63;4.10;;;27.00;42.10;;;;;;4863766;29;20531;-78
2022/06/29 08:22:24;;;;;;;4.10;3.70;;;27.30;41.30;;;;;;4865002;29;20476;-77
2022/06/29 08:24:51;;;;;;;6.30;3.90;;;27.50;40.20;;;;;;4861016;29;20832;-77
2022/06/29 08:27:21;;;;;;;3.73;3.43;;;27.60;39.00;;;;;;4860546;29;20468;-78
2022/06/29 08:29:48;;;;;;;5.33;4.10;;;27.60;39.00;;;;;;4863464;29;20432;-78
2022/06/29 08:32:16;;;;;;;8.43;3.63;;;27.70;39.00;;;;;;4868456;29;20469;-79
2022/06/29 08:34:43;;;;;;;4.70;4.30;;;27.90;38.40;;;;;;4864578;29;20491;-76
2022/06/29 08:37:10;;;;;;;4.30;3.90;;;27.90;37.90;;;;;;4863871;29;20469;-76
2022/06/29 08:39:37;;;;;;;3.63;3.17;;;27.70;38.00;;;;;;4868431;29;20466;-76
2022/06/29 08:42:06;;;;;;;6.27;3.33;;;27.60;38.20;;;;;;4864958;29;20454;-77
2022/06/29 08:44:34;;;;;;;4.17;3.77;;;27.70;38.50;;;;;;4862645;29;20879;-77
2022/06/29 08:47:01;;;;;;;3.53;3.23;;;27.70;38.70;;;;;;4862979;29;20458;-77
2022/06/29 08:49:30;;;;;;;3.60;3.27;;;27.80;38.70;;;;;;4862117;29;20437;-78
2022/06/29 08:51:58;;;;;;;6.53;3.50;;;27.80;38.40;;;;;;4868437;29;20461;-78
2022/06/29 08:54:26;;;;;;;4.00;3.60;;;27.80;38.00;;;;;;4881748;29;20532;-77
2022/06/29 08:56:54;;;;;;;3.97;3.50;;;27.50;39.30;;;;;;4878163;29;20499;-77
2022/06/29 08:59:22;;;;;;;4.20;3.73;;;27.30;39.40;;;;;;4861394;29;20539;-75
2022/06/29 09:01:50;;;;;;;4.03;3.40;;;27.20;39.90;;;;;;4860576;29;20473;-78
2022/06/29 09:04:17;;;;;;;5.70;4.13;;;27.30;39.10;;;;;;4860562;29;20462;-78
2022/06/29 09:06:45;;;;;;;3.80;3.50;;;27.30;39.00;;;;;;4862153;29;20951;-78
2022/06/29 09:09:12;;;;;;;4.93;4.17;;;27.20;40.00;;;;;;4861262;29;20847;-77
2022/06/29 09:11:43;;;;;;;4.00;3.80;;;26.90;40.40;;;;;;4860156;29;20468;-78
2022/06/29 09:14:12;;;;;;;3.73;3.43;;;27.00;40.70;;;;;;4841890;29;21010;-77
2022/06/29 09:16:52;;;;;;;4.33;4.03;;;27.00;40.20;;;;;;4842562;29;20542;-77
2022/06/29 09:19:20;;;;;;;4.57;4.17;;;27.20;39.90;;;;;;4842947;29;20450;-77
2022/06/29 09:21:50;;;;;;;4.53;4.13;;;27.40;39.50;;;;;;4844772;29;20474;-78
2022/06/29 09:24:18;;;;;;;5.87;3.97;;;27.60;39.20;;;;;;4849471;29;20821;-78
2022/06/29 09:26:49;;;;;;;4.10;3.80;;;27.60;39.00;;;;;;4865187;29;20465;-76
2022/06/29 09:29:23;;;;;;;5.50;4.43;;;27.80;38.40;;;;;;4863443;29;20476;-78
2022/06/29 09:32:14;;;;;;;4.67;3.90;;;27.60;38.40;;;;;;4862971;29;20485;-77
2022/06/29 09:34:43;;;;;;;10.70;4.17;;;27.40;38.10;;;;;;4864569;29;21063;-77
2022/06/29 09:37:13;;;;;;;5.03;3.87;;;27.50;38.40;;;;;;4864381;29;20526;-77
2022/06/29 09:39:42;;;;;;;4.23;3.83;;;27.50;38.40;;;;;;4862931;29;20470;-77
2022/06/29 09:42:12;;;;;;;6.07;3.83;;;27.60;38.30;;;;;;4862446;29;20443;-78
2022/06/29 09:44:40;;;;;;;7.80;3.93;;;27.60;38.30;;;;;;4862746;29;20548;-77
2022/06/29 09:47:09;;;;;;;3.80;3.50;;;27.80;37.90;;;;;;4862513;29;20836;-76
2022/06/29 09:49:37;;;;;;;5.60;3.83;;;27.70;37.90;;;;;;4863100;29;20827;-77
2022/06/29 09:52:06;;;;;;;3.73;3.53;;;27.60;38.20;;;;;;4863448;29;20471;-77
2022/06/29 09:54:39;;;;;;;5.97;3.97;;;27.60;38.00;;;;;;4871713;29;20477;-77
2022/06/29 09:57:07;;;;;;;3.77;3.57;;;27.70;37.80;;;;;;4865199;29;20554;-76
2022/06/29 10:02:38;;;;;;;4.00;3.40;;;28.10;36.60;;;;;;4862222;29;20423;-77
2022/06/29 10:05:10;;;;;;;3.43;3.23;;;28.10;35.30;;;;;;4863964;29;20417;-76
2022/06/29 10:07:38;;;;;;;3.30;3.00;;;28.10;35.30;;;;;;4864072;29;20473;-77
2022/06/29 10:10:10;;;;;;;4.97;4.07;;;27.90;35.20;;;;;;4863077;29;20774;-77
2022/06/29 10:16:02;;;;;;;3.97;3.20;;;27.70;36.00;;;;;;4862353;29;20709;-77
2022/06/29 10:18:46;;;;;;;5.00;3.20;;;27.90;35.20;;;;;;4865038;29;20523;-78
2022/06/29 10:21:15;;;;;;;3.63;3.40;;;28.20;35.40;;;;;;4862948;29;20464;-77
2022/06/29 10:23:46;;;;;;;3.73;3.43;;;28.20;36.10;;;;;;4862256;29;20482;-78
2022/06/29 10:26:39;;;;;;;3.63;3.33;;;28.30;35.50;;;;;;4862584;29;20441;-78
2022/06/29 10:29:29;;;;;;;3.57;3.37;;;28.60;34.40;;;;;;4860016;29;20461;-77
2022/06/29 10:32:07;;;;;;;4.70;3.00;;;28.50;34.50;;;;;;4858369;29;20475;-78
2022/06/29 10:34:41;;;;;;;3.50;3.20;;;28.70;34.50;;;;;;4870212;29;20454;-78
2022/06/29 10:37:11;;;;;;;7.77;3.53;;;29.10;34.10;;;;;;4864433;29;20449;-78
2022/06/29 10:40:05;;;;;;;4.00;3.50;;;29.40;33.00;;;;;;4864588;29;20443;-77
2022/06/29 10:45:24;;;;;;;5.27;3.70;;;29.50;33.00;;;;;;4875522;29;20438;-76
2022/06/29 10:48:30;;;;;;;3.37;3.07;;;29.60;32.40;;;;;;4883538;29;20487;-77
2022/06/29 10:50:57;;;;;;;4.30;3.37;;;29.80;32.00;;;;;;4881346;29;20425;-78
2022/06/29 10:53:24;;;;;;;4.00;3.67;;;29.20;32.30;;;;;;4878657;29;20500;-78
2022/06/29 10:55:54;;;;;;;4.37;3.77;;;28.80;33.80;;;;;;4863565;29;20490;-78
2022/06/29 10:58:23;;;;;;;3.97;3.67;;;28.80;34.00;;;;;;4862401;29;20442;-77
2022/06/29 11:00:54;;;;;;;3.80;3.60;;;28.60;33.60;;;;;;4863646;29;20440;-77
2022/06/29 11:03:23;;;;;;;4.20;3.80;;;28.40;33.10;;;;;;4862812;29;20457;-77
2022/06/29 11:15:39;;;;;;;3.20;2.90;;;28.00;34.80;;;;;;4870272;29;20443;-77
2022/06/29 11:16:57;;;;;;;5.37;3.70;;;28.20;34.10;;;;;;4874589;29;20476;-77
2022/06/29 11:19:30;;;;;;;6.37;4.03;;;28.40;33.80;;;;;;4873672;29;20504;-78
2022/06/29 11:22:11;;;;;;;5.77;4.60;;;28.20;35.00;;;;;;4863159;29;20496;-76
2022/06/29 11:24:57;;;;;;;3.97;3.60;;;27.80;35.10;;;;;;4866750;29;20465;-77
2022/06/29 11:27:39;;;;;;;5.43;3.90;;;27.70;35.40;;;;;;4859388;29;20431;-77
2022/06/29 11:30:09;;;;;;;4.80;3.40;;;27.30;34.70;;;;;;4858110;29;20445;-77
2022/06/29 11:32:44;;;;;;;6.03;3.20;;;27.20;35.30;;;;;;4865742;29;20451;-77
2022/06/29 11:35:13;;;;;;;3.40;3.13;;;27.40;34.80;;;;;;4865267;29;20839;-77
2022/06/29 11:37:47;;;;;;;3.10;2.90;;;27.90;34.30;;;;;;4862224;29;20539;-77
2022/06/29 11:40:14;;;;;;;3.53;3.23;;;28.20;32.80;;;;;;4859932;29;20554;-77
2022/06/29 11:45:39;;;;;;;3.40;3.10;;;28.40;31.00;;;;;;4865703;29;20435;-77
2022/06/29 11:48:12;;;;;;;2.90;2.70;;;28.50;31.10;;;;;;4877725;29;20436;-76
2022/06/29 11:50:47;;;;;;;3.67;3.20;;;28.50;30.10;;;;;;4881450;29;20525;-77
2022/06/29 11:53:14;;;;;;;2.97;2.73;;;28.40;30.50;;;;;;4883044;29;20566;-77
2022/06/29 11:55:43;;;;;;;3.03;2.83;;;28.30;30.70;;;;;;4881774;29;20525;-76
2022/06/29 11:58:11;;;;;;;6.60;3.00;;;28.40;31.10;;;;;;4883488;29;20457;-77
2022/06/29 12:00:40;;;;;;;2.87;2.63;;;28.60;30.40;;;;;;4876622;29;20442;-78
2022/06/29 12:03:08;;;;;;;5.03;3.30;;;28.80;30.50;;;;;;4861724;29;20482;-76
2022/06/29 12:05:36;;;;;;;3.60;3.30;;;28.80;31.10;;;;;;4861752;29;20457;-76
2022/06/29 12:08:03;;;;;;;3.80;3.30;;;28.70;30.20;;;;;;4861390;29;20469;-75
2022/06/29 12:10:29;;;;;;;3.40;3.03;;;28.40;31.60;;;;;;4861295;29;20560;-76
2022/06/29 12:12:56;;;;;;;4.20;3.10;;;28.30;31.00;;;;;;4861517;29;20565;-76
2022/06/29 12:15:23;;;;;;;7.53;3.70;;;27.90;32.10;;;;;;4860826;29;20565;-75
2022/06/29 12:17:52;;;;;;;8.00;3.73;;;27.90;31.40;;;;;;4860761;29;20795;-77
2022/06/29 12:20:20;;;;;;;3.40;3.20;;;28.00;31.70;;;;;;4861374;29;20441;-77
2022/06/29 12:22:47;;;;;;;3.77;3.50;;;28.20;32.30;;;;;;4864748;29;20503;-77
2022/06/29 12:25:14;;;;;;;3.90;3.07;;;28.50;31.90;;;;;;4880618;29;20468;-78
2022/06/29 12:27:40;;;;;;;5.13;3.40;;;28.50;31.50;;;;;;4874365;29;20441;-76
2022/06/29 12:30:09;;;;;;;3.30;3.00;;;28.70;31.80;;;;;;4861326;29;21016;-77
2022/06/29 12:32:35;;;;;;;3.40;3.10;;;28.70;31.50;;;;;;4861535;29;20458;-76
2022/06/29 12:35:04;;;;;;;4.17;3.77;;;28.60;31.10;;;;;;4863357;29;20461;-75
2022/06/29 12:37:31;;;;;;;3.60;3.30;;;28.80;30.00;;;;;;4872738;29;20464;-76
2022/06/29 12:39:58;;;;;;;3.87;3.57;;;28.80;30.50;;;;;;4876505;29;20474;-75
2022/06/29 12:42:24;;;;;;;3.80;3.50;;;28.70;31.00;;;;;;4876406;29;20442;-76
2022/06/29 12:44:51;;;;;;;3.83;3.63;;;29.00;30.60;;;;;;4879873;29;20478;-76
2022/06/29 12:47:18;;;;;;;4.03;3.53;;;29.20;30.80;;;;;;4877130;29;20454;-76
2022/06/29 12:49:45;;;;;;;4.93;3.47;;;29.30;30.20;;;;;;4875671;29;20444;-76
2022/06/29 12:52:13;;;;;;;5.63;3.47;;;28.90;30.60;;;;;;4870590;29;20470;-77
2022/06/29 12:54:40;;;;;;;5.90;3.83;;;29.10;30.50;;;;;;4866792;29;21212;-76
2022/06/29 12:57:07;;;;;;;4.50;3.60;;;28.80;30.90;;;;;;4868613;29;20497;-77
2022/06/29 12:59:34;;;;;;;3.57;3.27;;;28.90;30.60;;;;;;4866532;29;20459;-76
2022/06/29 13:02:01;;;;;;;3.90;3.37;;;28.50;32.00;;;;;;4865569;29;20470;-76
2022/06/29 13:04:28;;;;;;;4.10;3.80;;;28.60;31.50;;;;;;4866252;29;20798;-77
2022/06/29 13:06:55;;;;;;;4.07;3.77;;;28.80;31.90;;;;;;4865682;29;20458;-76
2022/06/29 13:09:23;;;;;;;5.40;3.10;;;28.30;32.20;;;;;;4866316;29;20545;-76
2022/06/29 13:11:50;;;;;;;5.30;3.60;;;28.10;33.40;;;;;;4866301;29;20464;-76
2022/06/29 13:14:17;;;;;;;3.63;3.23;;;28.10;33.50;;;;;;4867067;29;20488;-76
2022/06/29 13:16:44;;;;;;;5.60;3.90;;;28.20;33.50;;;;;;4866408;29;20500;-75
2022/06/29 13:19:11;;;;;;;3.70;3.50;;;28.50;32.50;;;;;;4865773;29;20879;-78